Time;durP1;ratioP1;P1;durP2;ratioP2;P2;SDS_P1;SDS_P2;PMS_P1;PMS_P2;Temp;Humidity;BMP_temperature;BMP_pressure;BME280_temperature;BME280_humidity;BME280_pressure;Samples;Min_cycle;Max_cycle;Signal;HPM_P1;HPM_P2
2021/06/26 00:00:16;;;;;;;25.77;12.88;;;;;;;;;;5036973;28;20095;-58
2021/06/26 00:02:44;;;;;;;29.02;12.75;;;;;;;;;;5037726;28;20042;-58
2021/06/26 00:05:11;;;;;;;26.23;13.27;;;;;;;;;;5026443;28;20046;-58
2021/06/26 00:07:39;;;;;;;22.10;12.48;;;;;;;;;;5040160;28;20070;-58
2021/06/26 00:10:07;;;;;;;23.57;12.10;;;;;;;;;;5030507;28;20029;-59
2021/06/26 00:12:34;;;;;;;24.50;12.70;;;;;;;;;;5040261;28;20368;-58
2021/06/26 00:15:01;;;;;;;23.88;12.88;;;;;;;;;;5035736;28;20037;-58
2021/06/26 00:17:27;;;;;;;26.38;12.75;;;;;;;;;;5039375;28;20042;-59
2021/06/26 00:19:54;;;;;;;25.67;12.25;;;;;;;;;;5036046;28;20115;-58
2021/06/26 00:22:21;;;;;;;26.40;14.15;;;;;;;;;;5039097;28;20045;-58
2021/06/26 00:24:48;;;;;;;25.77;12.75;;;;;;;;;;5034411;28;20113;-58
2021/06/26 00:27:15;;;;;;;26.25;13.50;;;;;;;;;;5016904;28;20124;-58
2021/06/26 00:29:41;;;;;;;26.50;13.73;;;;;;;;;;5019425;28;20041;-58
2021/06/26 00:32:08;;;;;;;26.75;13.88;;;;;;;;;;5031667;28;20049;-58
2021/06/26 00:34:34;;;;;;;25.55;12.82;;;;;;;;;;5056498;28;20122;-58
2021/06/26 00:37:01;;;;;;;23.17;13.25;;;;;;;;;;5034396;28;20048;-57
2021/06/26 00:39:27;;;;;;;27.55;13.82;;;;;;;;;;5039435;28;20056;-58
2021/06/26 00:41:55;;;;;;;25.45;13.20;;;;;;;;;;5034532;28;20045;-58
2021/06/26 00:44:27;;;;;;;25.70;13.15;;;;;;;;;;5039688;28;20058;-58
2021/06/26 00:46:53;;;;;;;22.85;12.48;;;;;;;;;;5026437;28;20065;-59
2021/06/26 00:49:20;;;;;;;25.70;13.10;;;;;;;;;;5020645;28;20029;-58
2021/06/26 00:51:46;;;;;;;30.17;13.98;;;;;;;;;;5017041;28;20104;-58
2021/06/26 00:54:15;;;;;;;29.25;14.57;;;;;;;;;;5018257;28;20165;-57
2021/06/26 00:56:42;;;;;;;24.63;12.52;;;;;;;;;;5022654;28;20125;-58
2021/06/26 00:59:10;;;;;;;27.08;13.68;;;;;;;;;;5042588;28;20048;-58
2021/06/26 01:01:37;;;;;;;27.98;13.60;;;;;;;;;;5053754;28;20041;-59
2021/06/26 01:04:04;;;;;;;26.77;13.75;;;;;;;;;;5022481;28;20044;-58
2021/06/26 01:06:30;;;;;;;28.05;13.20;;;;;;;;;;5022669;28;20042;-58
2021/06/26 01:08:57;;;;;;;27.15;14.02;;;;;;;;;;5036589;28;20061;-58
2021/06/26 01:11:23;;;;;;;27.10;13.68;;;;;;;;;;5010638;28;20030;-58
2021/06/26 01:13:51;;;;;;;27.98;13.93;;;;;;;;;;5016599;28;20053;-58
2021/06/26 01:16:19;;;;;;;25.90;13.65;;;;;;;;;;5039938;28;20038;-58
2021/06/26 01:18:45;;;;;;;27.20;13.30;;;;;;;;;;5019514;28;20049;-55
2021/06/26 01:21:12;;;;;;;24.95;13.70;;;;;;;;;;5041038;28;20275;-58
2021/06/26 01:23:45;;;;;;;25.98;13.90;;;;;;;;;;5023448;28;20365;-58
2021/06/26 01:26:12;;;;;;;24.63;13.07;;;;;;;;;;5046156;28;20055;-58
2021/06/26 01:28:39;;;;;;;26.40;13.23;;;;;;;;;;5043748;28;20043;-58
2021/06/26 01:31:06;;;;;;;27.65;13.75;;;;;;;;;;5044980;28;20033;-58
2021/06/26 01:33:33;;;;;;;28.08;12.80;;;;;;;;;;5042628;28;20040;-58
2021/06/26 01:36:00;;;;;;;25.65;13.63;;;;;;;;;;5078122;28;20029;-58
2021/06/26 01:38:26;;;;;;;23.80;13.05;;;;;;;;;;5075973;28;20049;-58
2021/06/26 01:40:54;;;;;;;23.52;13.20;;;;;;;;;;5063865;28;20052;-58
2021/06/26 01:43:21;;;;;;;29.70;14.40;;;;;;;;;;5040332;28;20057;-58
2021/06/26 01:45:47;;;;;;;25.27;12.93;;;;;;;;;;5044873;28;20284;-57
2021/06/26 01:48:14;;;;;;;24.85;13.10;;;;;;;;;;5060538;28;20132;-58
2021/06/26 01:50:40;;;;;;;25.23;13.20;;;;;;;;;;5049477;28;20044;-58
2021/06/26 01:53:07;;;;;;;27.50;12.27;;;;;;;;;;5043578;28;20174;-59
2021/06/26 01:55:34;;;;;;;27.05;12.40;;;;;;;;;;5057296;28;20063;-58
2021/06/26 01:58:01;;;;;;;26.05;12.93;;;;;;;;;;5043943;28;20084;-58
2021/06/26 02:00:28;;;;;;;25.33;13.73;;;;;;;;;;5039599;28;20110;-57
2021/06/26 02:02:55;;;;;;;26.50;13.75;;;;;;;;;;5042728;28;20167;-58
2021/06/26 02:05:23;;;;;;;27.48;13.30;;;;;;;;;;5057567;28;20048;-57
2021/06/26 02:07:49;;;;;;;25.45;13.88;;;;;;;;;;5043889;28;20126;-58
2021/06/26 02:10:16;;;;;;;28.55;13.88;;;;;;;;;;5041820;28;20032;-57
2021/06/26 02:12:43;;;;;;;25.27;13.55;;;;;;;;;;5045290;28;20121;-57
2021/06/26 02:15:11;;;;;;;26.95;13.43;;;;;;;;;;5038643;28;20041;-58
2021/06/26 02:17:37;;;;;;;27.63;12.98;;;;;;;;;;5062100;28;20126;-57
2021/06/26 02:20:05;;;;;;;26.60;13.18;;;;;;;;;;5060700;28;20136;-58
2021/06/26 02:22:31;;;;;;;26.10;12.82;;;;;;;;;;5045122;28;20045;-58
2021/06/26 02:25:02;;;;;;;25.50;13.43;;;;;;;;;;5046729;28;20041;-58
2021/06/26 02:27:29;;;;;;;24.27;12.80;;;;;;;;;;5061686;28;20041;-58
2021/06/26 02:29:55;;;;;;;28.08;13.50;;;;;;;;;;5060704;28;20048;-58
2021/06/26 02:32:23;;;;;;;28.23;14.43;;;;;;;;;;5064186;28;20181;-58
2021/06/26 02:34:52;;;;;;;26.87;13.63;;;;;;;;;;5065512;28;20093;-58
2021/06/26 02:37:19;;;;;;;24.83;12.38;;;;;;;;;;5057666;28;20048;-58
2021/06/26 02:39:45;;;;;;;30.35;13.45;;;;;;;;;;5062176;28;20041;-58
2021/06/26 02:42:11;;;;;;;24.10;11.93;;;;;;;;;;5061007;28;20094;-58
2021/06/26 02:44:38;;;;;;;24.67;12.30;;;;;;;;;;5065646;28;20036;-58
2021/06/26 02:47:05;;;;;;;27.90;13.07;;;;;;;;;;5065771;28;20047;-58
2021/06/26 02:49:33;;;;;;;24.10;13.05;;;;;;;;;;5062305;28;20049;-58
2021/06/26 02:51:59;;;;;;;24.30;12.93;;;;;;;;;;5061176;28;20060;-58
2021/06/26 02:54:27;;;;;;;23.92;12.43;;;;;;;;;;5065977;28;20034;-57
2021/06/26 02:56:53;;;;;;;26.85;13.25;;;;;;;;;;5059875;28;20056;-58
2021/06/26 02:59:21;;;;;;;23.67;12.50;;;;;;;;;;5062533;28;20072;-58
2021/06/26 03:01:48;;;;;;;23.70;11.82;;;;;;;;;;5062466;28;20040;-58
2021/06/26 03:04:16;;;;;;;24.27;12.65;;;;;;;;;;5063216;28;20057;-57
2021/06/26 03:06:43;;;;;;;28.80;13.38;;;;;;;;;;5057856;28;20040;-58
2021/06/26 03:09:10;;;;;;;25.80;12.23;;;;;;;;;;5064736;28;20036;-58
2021/06/26 03:11:36;;;;;;;24.25;11.93;;;;;;;;;;5058242;28;20316;-57
2021/06/26 03:14:03;;;;;;;24.40;12.65;;;;;;;;;;5061441;28;20048;-57
2021/06/26 03:16:30;;;;;;;24.30;12.63;;;;;;;;;;5061069;28;20075;-58
2021/06/26 03:18:56;;;;;;;24.65;13.23;;;;;;;;;;5060069;28;20055;-58
2021/06/26 03:21:22;;;;;;;28.10;13.18;;;;;;;;;;5063958;28;20044;-59
2021/06/26 03:23:50;;;;;;;23.90;12.35;;;;;;;;;;5060959;28;20040;-58
2021/06/26 03:26:19;;;;;;;22.02;11.63;;;;;;;;;;5063759;28;20055;-57
2021/06/26 03:28:46;;;;;;;30.27;12.63;;;;;;;;;;5060597;28;20040;-58
2021/06/26 03:31:12;;;;;;;22.38;12.45;;;;;;;;;;5063695;28;20044;-58
2021/06/26 03:33:39;;;;;;;22.48;12.02;;;;;;;;;;5057112;28;20064;-58
2021/06/26 03:36:06;;;;;;;24.55;12.73;;;;;;;;;;5059298;28;20071;-58
2021/06/26 03:38:33;;;;;;;24.20;12.75;;;;;;;;;;5056812;28;20047;-58
2021/06/26 03:41:00;;;;;;;28.00;13.60;;;;;;;;;;5060556;28;20055;-58
2021/06/26 03:43:27;;;;;;;25.70;13.50;;;;;;;;;;5060162;28;20036;-58
2021/06/26 03:45:54;;;;;;;26.00;13.25;;;;;;;;;;5062475;28;20377;-58
2021/06/26 03:48:20;;;;;;;25.63;13.05;;;;;;;;;;5055610;28;20037;-57
2021/06/26 03:50:47;;;;;;;28.13;13.68;;;;;;;;;;5060509;28;20045;-58
2021/06/26 03:53:17;;;;;;;26.05;13.27;;;;;;;;;;5057745;28;20098;-57
2021/06/26 03:55:51;;;;;;;27.77;13.57;;;;;;;;;;5060482;28;20125;-58
2021/06/26 03:58:19;;;;;;;25.42;13.55;;;;;;;;;;5026411;28;20042;-58
2021/06/26 04:00:46;;;;;;;25.30;13.27;;;;;;;;;;5040943;28;20045;-58
2021/06/26 04:03:13;;;;;;;29.52;13.57;;;;;;;;;;5043853;28;20045;-58
2021/06/26 04:05:39;;;;;;;30.45;14.07;;;;;;;;;;5037064;28;20037;-58
2021/06/26 04:08:06;;;;;;;27.02;14.02;;;;;;;;;;5062657;28;20047;-58
2021/06/26 04:10:33;;;;;;;26.20;13.13;;;;;;;;;;5041030;28;20056;-58
2021/06/26 04:13:01;;;;;;;27.50;13.52;;;;;;;;;;5056490;28;20036;-58
2021/06/26 04:15:29;;;;;;;29.67;14.23;;;;;;;;;;5072253;28;20044;-58
2021/06/26 04:17:55;;;;;;;25.40;12.77;;;;;;;;;;5047574;28;20039;-58
2021/06/26 04:20:22;;;;;;;25.23;13.10;;;;;;;;;;5058560;28;20074;-58
2021/06/26 04:22:49;;;;;;;27.70;12.68;;;;;;;;;;5058982;28;20032;-58
2021/06/26 04:25:16;;;;;;;21.02;11.73;;;;;;;;;;5041716;28;20048;-58
2021/06/26 04:27:42;;;;;;;26.10;13.27;;;;;;;;;;5058203;28;20109;-58
2021/06/26 04:30:09;;;;;;;28.13;13.20;;;;;;;;;;5057125;28;20033;-58
2021/06/26 04:32:38;;;;;;;28.33;13.82;;;;;;;;;;5048728;28;20039;-58
2021/06/26 04:35:05;;;;;;;28.23;12.98;;;;;;;;;;5044506;28;20060;-58
2021/06/26 04:37:32;;;;;;;27.40;13.32;;;;;;;;;;5065877;28;20289;-58
2021/06/26 04:39:59;;;;;;;27.65;13.80;;;;;;;;;;5044096;28;20040;-58
2021/06/26 04:42:25;;;;;;;28.95;13.80;;;;;;;;;;5062047;28;20049;-57
2021/06/26 04:44:52;;;;;;;28.63;13.27;;;;;;;;;;5045172;28;20037;-58
2021/06/26 04:47:18;;;;;;;30.67;13.07;;;;;;;;;;5024629;28;20049;-58
2021/06/26 04:49:46;;;;;;;28.48;12.45;;;;;;;;;;5025753;28;20051;-58
2021/06/26 04:52:12;;;;;;;35.50;13.20;;;;;;;;;;5022239;28;20130;-57
2021/06/26 04:54:39;;;;;;;25.13;13.00;;;;;;;;;;5036968;28;20037;-58
2021/06/26 04:57:06;;;;;;;25.67;13.55;;;;;;;;;;5037389;28;20279;-57
2021/06/26 04:59:33;;;;;;;26.38;13.00;;;;;;;;;;5042097;28;20049;-58
2021/06/26 05:01:59;;;;;;;26.80;13.30;;;;;;;;;;5041378;28;20044;-56
2021/06/26 05:04:26;;;;;;;24.90;13.27;;;;;;;;;;5059057;28;20047;-58
2021/06/26 05:06:56;;;;;;;29.02;13.93;;;;;;;;;;5035948;28;20061;-57
2021/06/26 05:09:22;;;;;;;30.83;16.20;;;;;;;;;;5038583;28;20097;-58
2021/06/26 05:11:49;;;;;;;33.17;15.50;;;;;;;;;;5037856;28;20059;-57
2021/06/26 05:14:15;;;;;;;32.13;15.90;;;;;;;;;;5038823;28;20049;-58
2021/06/26 05:16:42;;;;;;;33.85;16.05;;;;;;;;;;5058306;28;20048;-58
2021/06/26 05:19:09;;;;;;;33.08;16.27;;;;;;;;;;5059852;28;20029;-58
2021/06/26 05:21:36;;;;;;;35.45;17.50;;;;;;;;;;5054802;28;20041;-58
2021/06/26 05:24:04;;;;;;;43.13;17.70;;;;;;;;;;5069400;28;20048;-58
2021/06/26 05:26:30;;;;;;;36.50;17.90;;;;;;;;;;5061906;28;20036;-58
2021/06/26 05:28:57;;;;;;;41.13;16.98;;;;;;;;;;5061973;28;20052;-58
2021/06/26 05:31:23;;;;;;;31.17;16.40;;;;;;;;;;5083612;28;20040;-58
2021/06/26 05:33:50;;;;;;;30.08;16.08;;;;;;;;;;5080537;28;20133;-58
2021/06/26 05:36:16;;;;;;;33.70;16.98;;;;;;;;;;5063805;28;20084;-58
2021/06/26 05:38:43;;;;;;;33.75;16.35;;;;;;;;;;5077665;28;20044;-58
2021/06/26 05:41:11;;;;;;;34.05;16.95;;;;;;;;;;5064597;28;20051;-58
2021/06/26 05:43:38;;;;;;;31.98;16.27;;;;;;;;;;5060355;28;20079;-57
2021/06/26 05:46:05;;;;;;;29.48;14.85;;;;;;;;;;5064788;28;20064;-58
2021/06/26 05:48:31;;;;;;;26.85;13.85;;;;;;;;;;5061156;28;20052;-58
2021/06/26 05:50:58;;;;;;;28.80;14.27;;;;;;;;;;5064149;28;20090;-58
2021/06/26 05:53:25;;;;;;;28.10;13.95;;;;;;;;;;5061623;28;20060;-58
2021/06/26 05:55:57;;;;;;;29.17;13.00;;;;;;;;;;5080516;28;20109;-58
2021/06/26 05:58:26;;;;;;;26.48;12.93;;;;;;;;;;5059078;28;20067;-58
2021/06/26 06:00:52;;;;;;;24.77;12.57;;;;;;;;;;5065086;28;20052;-58
2021/06/26 06:03:19;;;;;;;22.67;11.60;;;;;;;;;;5059831;28;20076;-58
2021/06/26 06:05:46;;;;;;;22.67;11.57;;;;;;;;;;5062987;28;20044;-58
2021/06/26 06:08:15;;;;;;;22.10;11.45;;;;;;;;;;5066434;28;20028;-58
2021/06/26 06:10:41;;;;;;;23.52;11.27;;;;;;;;;;5060684;28;20116;-58
2021/06/26 06:13:12;;;;;;;21.55;11.02;;;;;;;;;;5082688;28;20048;-58
2021/06/26 06:15:39;;;;;;;27.05;11.50;;;;;;;;;;5044998;28;20043;-58
2021/06/26 06:18:06;;;;;;;23.27;11.47;;;;;;;;;;5049957;28;20139;-58
2021/06/26 06:20:32;;;;;;;21.48;11.68;;;;;;;;;;5053127;28;20102;-58
2021/06/26 06:23:01;;;;;;;23.38;11.52;;;;;;;;;;5060583;28;20040;-58
2021/06/26 06:25:28;;;;;;;24.25;11.57;;;;;;;;;;5055123;28;20130;-58
2021/06/26 06:27:54;;;;;;;24.58;11.82;;;;;;;;;;5056279;28;20053;-58
2021/06/26 06:30:24;;;;;;;22.83;11.05;;;;;;;;;;5056422;28;20072;-58
2021/06/26 06:32:52;;;;;;;26.40;11.73;;;;;;;;;;5059719;28;20037;-58
2021/06/26 06:35:19;;;;;;;28.88;12.63;;;;;;;;;;5056655;28;20036;-58
2021/06/26 06:37:45;;;;;;;23.30;11.93;;;;;;;;;;5058477;28;20061;-58
2021/06/26 06:40:12;;;;;;;24.42;11.43;;;;;;;;;;5053514;28;20113;-58
2021/06/26 06:42:39;;;;;;;28.85;12.18;;;;;;;;;;5059310;28;20044;-58
2021/06/26 06:45:07;;;;;;;24.27;11.73;;;;;;;;;;5054124;28;20146;-58
2021/06/26 06:47:33;;;;;;;23.30;11.55;;;;;;;;;;5056328;28;20128;-58
2021/06/26 06:50:01;;;;;;;26.33;11.52;;;;;;;;;;5058050;28;20147;-58
2021/06/26 06:52:28;;;;;;;23.88;11.85;;;;;;;;;;5043169;28;20045;-58
2021/06/26 06:54:54;;;;;;;24.60;10.40;;;;;;;;;;5059017;28;20052;-58
2021/06/26 06:57:23;;;;;;;23.90;11.07;;;;;;;;;;5053266;28;20053;-58
2021/06/26 06:59:50;;;;;;;24.90;10.90;;;;;;;;;;5058479;28;20053;-57
2021/06/26 07:02:16;;;;;;;23.95;11.50;;;;;;;;;;5038612;28;20052;-58
2021/06/26 07:04:44;;;;;;;23.48;12.27;;;;;;;;;;5055685;28;20134;-58
2021/06/26 07:07:12;;;;;;;25.20;9.90;;;;;;;;;;5059127;28;20045;-58
2021/06/26 07:09:41;;;;;;;20.38;10.20;;;;;;;;;;5048081;28;20044;-58
2021/06/26 07:12:07;;;;;;;21.52;11.10;;;;;;;;;;5035230;28;20052;-58
2021/06/26 07:14:34;;;;;;;23.77;10.65;;;;;;;;;;5034022;28;20060;-58
2021/06/26 07:17:01;;;;;;;22.33;9.45;;;;;;;;;;5063183;28;20060;-58
2021/06/26 07:19:27;;;;;;;20.05;10.45;;;;;;;;;;5058505;28;20049;-58
2021/06/26 07:21:54;;;;;;;23.83;10.30;;;;;;;;;;5054948;28;20089;-58
2021/06/26 07:24:22;;;;;;;23.67;10.23;;;;;;;;;;5059222;28;20107;-58
2021/06/26 07:26:49;;;;;;;24.15;10.57;;;;;;;;;;5051772;28;20061;-58
2021/06/26 07:29:16;;;;;;;21.45;9.27;;;;;;;;;;5058365;28;20138;-58
2021/06/26 07:31:42;;;;;;;23.27;10.82;;;;;;;;;;5053529;28;20069;-58
2021/06/26 07:34:11;;;;;;;23.17;10.38;;;;;;;;;;5051667;28;20123;-58
2021/06/26 07:36:37;;;;;;;20.35;8.90;;;;;;;;;;5056526;28;20106;-58
2021/06/26 07:39:05;;;;;;;18.20;9.85;;;;;;;;;;5054186;28;20445;-58
2021/06/26 07:41:33;;;;;;;22.13;9.35;;;;;;;;;;5041827;28;20048;-58
2021/06/26 07:44:01;;;;;;;23.20;9.90;;;;;;;;;;5056015;28;20048;-58
2021/06/26 07:46:27;;;;;;;18.13;9.23;;;;;;;;;;5054131;28;20065;-58
2021/06/26 07:48:54;;;;;;;17.38;9.18;;;;;;;;;;5050656;28;20041;-58
2021/06/26 07:51:20;;;;;;;21.73;9.57;;;;;;;;;;5061096;28;20045;-58
2021/06/26 07:53:47;;;;;;;19.67;9.02;;;;;;;;;;5046538;28;20087;-58
2021/06/26 07:56:14;;;;;;;18.05;8.95;;;;;;;;;;5040362;28;20056;-57
2021/06/26 07:58:41;;;;;;;16.83;7.32;;;;;;;;;;5027000;28;20115;-58
2021/06/26 08:01:08;;;;;;;17.20;8.37;;;;;;;;;;5044399;28;20143;-58
2021/06/26 08:03:35;;;;;;;15.68;8.43;;;;;;;;;;5039390;28;20273;-58
2021/06/26 08:06:01;;;;;;;18.17;9.52;;;;;;;;;;5040698;28;20029;-58
2021/06/26 08:08:29;;;;;;;21.10;10.02;;;;;;;;;;5044562;28;20041;-58
2021/06/26 08:10:55;;;;;;;17.70;9.07;;;;;;;;;;5082911;28;20058;-58
2021/06/26 08:13:24;;;;;;;20.30;9.68;;;;;;;;;;5080500;28;20041;-58
2021/06/26 08:15:52;;;;;;;16.92;9.88;;;;;;;;;;5064780;28;20178;-58
2021/06/26 08:18:18;;;;;;;20.40;9.80;;;;;;;;;;5080754;28;20118;-58
2021/06/26 08:20:45;;;;;;;22.52;8.77;;;;;;;;;;5064042;28;20088;-58
2021/06/26 08:23:12;;;;;;;19.63;9.15;;;;;;;;;;5083722;28;20040;-58
2021/06/26 08:25:39;;;;;;;18.25;9.52;;;;;;;;;;5049226;28;20041;-59
2021/06/26 08:28:05;;;;;;;17.52;9.10;;;;;;;;;;5046737;28;20051;-58
2021/06/26 08:30:32;;;;;;;15.90;8.55;;;;;;;;;;5057027;28;20125;-58
2021/06/26 08:33:02;;;;;;;18.63;8.85;;;;;;;;;;5066721;28;20044;-58
2021/06/26 08:35:31;;;;;;;13.82;7.93;;;;;;;;;;5062344;28;20076;-58
2021/06/26 08:38:03;;;;;;;15.23;8.60;;;;;;;;;;5065786;28;20045;-58
2021/06/26 08:40:30;;;;;;;27.30;10.65;;;;;;;;;;5039166;28;20036;-57
2021/06/26 08:42:56;;;;;;;20.48;9.68;;;;;;;;;;5067961;28;20089;-58
2021/06/26 08:45:23;;;;;;;17.83;8.93;;;;;;;;;;5063760;28;20055;-58
2021/06/26 08:47:51;;;;;;;18.02;9.60;;;;;;;;;;5065166;28;20043;-58
2021/06/26 08:50:19;;;;;;;17.52;8.25;;;;;;;;;;5057677;28;20043;-57
2021/06/26 08:52:46;;;;;;;15.18;8.05;;;;;;;;;;5044701;28;20059;-57
2021/06/26 08:55:20;;;;;;;14.70;7.57;;;;;;;;;;5061077;28;20072;-56
2021/06/26 08:57:48;;;;;;;16.98;7.65;;;;;;;;;;5064245;28;20051;-54
2021/06/26 09:00:15;;;;;;;18.23;8.93;;;;;;;;;;5078004;28;20052;-57
2021/06/26 09:02:46;;;;;;;17.95;8.60;;;;;;;;;;5063250;28;20041;-58
2021/06/26 09:05:25;;;;;;;15.15;8.48;;;;;;;;;;5059258;28;20055;-58
2021/06/26 09:07:51;;;;;;;15.65;8.48;;;;;;;;;;5062554;28;20048;-58
2021/06/26 09:10:19;;;;;;;25.52;9.20;;;;;;;;;;5081082;28;20145;-56
2021/06/26 09:12:49;;;;;;;15.80;8.00;;;;;;;;;;5059338;28;20048;-58
2021/06/26 09:15:21;;;;;;;15.55;8.15;;;;;;;;;;5080378;28;20028;-56
2021/06/26 09:17:47;;;;;;;17.70;9.02;;;;;;;;;;5082499;28;20051;-58
2021/06/26 09:20:14;;;;;;;18.13;9.52;;;;;;;;;;5062670;28;20043;-57
2021/06/26 09:22:44;;;;;;;16.83;8.25;;;;;;;;;;5071917;28;20121;-57
2021/06/26 09:25:29;;;;;;;14.50;7.78;;;;;;;;;;5045955;28;20064;-56
2021/06/26 09:27:59;;;;;;;16.15;8.32;;;;;;;;;;5045569;28;20040;-56
2021/06/26 09:30:33;;;;;;;14.65;7.68;;;;;;;;;;5079552;28;20037;-57
2021/06/26 09:33:02;;;;;;;15.70;8.70;;;;;;;;;;5074529;28;20056;-58
2021/06/26 09:35:28;;;;;;;16.30;8.43;;;;;;;;;;5046012;28;20069;-58
2021/06/26 09:37:59;;;;;;;14.05;7.13;;;;;;;;;;5040652;28;20045;-58
2021/06/26 09:40:27;;;;;;;14.32;7.15;;;;;;;;;;5045882;28;20041;-57
2021/06/26 09:42:57;;;;;;;13.25;7.40;;;;;;;;;;5047554;28;20044;-57
2021/06/26 09:45:23;;;;;;;16.35;7.40;;;;;;;;;;5083474;28;20044;-57
2021/06/26 09:47:52;;;;;;;12.95;7.78;;;;;;;;;;5055489;28;20052;-57
2021/06/26 09:50:19;;;;;;;16.83;7.53;;;;;;;;;;5045907;28;20041;-57
2021/06/26 09:52:47;;;;;;;17.83;7.28;;;;;;;;;;5036767;28;20114;-58
2021/06/26 09:55:17;;;;;;;11.95;6.65;;;;;;;;;;5024746;28;20077;-58
2021/06/26 09:57:43;;;;;;;17.90;7.22;;;;;;;;;;5030899;28;20055;-58
2021/06/26 10:00:10;;;;;;;15.73;7.75;;;;;;;;;;5045223;28;20068;-58
2021/06/26 10:02:37;;;;;;;15.65;8.00;;;;;;;;;;5043717;28;20098;-58
2021/06/26 10:05:04;;;;;;;12.43;5.75;;;;;;;;;;5044365;28;20068;-58
2021/06/26 10:07:31;;;;;;;15.50;7.10;;;;;;;;;;5051601;28;20044;-58
2021/06/26 10:09:58;;;;;;;11.05;6.03;;;;;;;;;;5060405;28;20072;-58
2021/06/26 10:12:26;;;;;;;13.48;6.00;;;;;;;;;;5083342;28;20036;-57
2021/06/26 10:14:54;;;;;;;10.95;5.85;;;;;;;;;;5053368;28;20040;-58
2021/06/26 10:17:24;;;;;;;10.77;6.80;;;;;;;;;;5066102;28;20072;-58
2021/06/26 10:19:51;;;;;;;10.52;6.05;;;;;;;;;;5031257;28;20048;-58
2021/06/26 10:22:17;;;;;;;11.55;5.80;;;;;;;;;;5063900;28;20121;-58
2021/06/26 10:24:44;;;;;;;15.00;7.13;;;;;;;;;;5048201;28;20048;-57
2021/06/26 10:27:16;;;;;;;14.20;6.55;;;;;;;;;;5061751;28;20053;-58
2021/06/26 10:29:44;;;;;;;10.35;6.25;;;;;;;;;;5054879;28;20040;-58
2021/06/26 10:32:11;;;;;;;11.05;6.07;;;;;;;;;;5062496;28;20033;-57
2021/06/26 10:34:42;;;;;;;10.30;5.80;;;;;;;;;;5051618;28;20080;-58
2021/06/26 10:37:16;;;;;;;13.65;5.20;;;;;;;;;;5040879;28;20061;-58
2021/06/26 10:39:42;;;;;;;12.15;6.15;;;;;;;;;;5040006;28;20049;-59
2021/06/26 10:42:10;;;;;;;13.15;5.53;;;;;;;;;;5041246;28;20041;-58
2021/06/26 10:44:45;;;;;;;13.32;4.97;;;;;;;;;;5039888;28;20056;-58
2021/06/26 10:47:12;;;;;;;13.63;6.25;;;;;;;;;;5061528;28;20118;-59
2021/06/26 10:49:39;;;;;;;11.93;6.50;;;;;;;;;;5058574;28;20047;-58
2021/06/26 10:52:10;;;;;;;11.70;5.88;;;;;;;;;;5063173;28;20033;-58
2021/06/26 10:54:38;;;;;;;12.27;7.03;;;;;;;;;;5062513;28;20125;-59
2021/06/26 10:57:06;;;;;;;13.07;5.93;;;;;;;;;;5058324;28;20036;-58
2021/06/26 10:59:35;;;;;;;17.48;7.85;;;;;;;;;;5061306;28;20051;-59
2021/06/26 11:02:05;;;;;;;14.05;5.97;;;;;;;;;;5055145;28;20122;-58
2021/06/26 11:04:33;;;;;;;12.63;5.53;;;;;;;;;;5060103;28;20052;-58
2021/06/26 11:07:04;;;;;;;11.65;5.50;;;;;;;;;;5042711;28;20056;-59
2021/06/26 11:09:35;;;;;;;12.68;6.80;;;;;;;;;;5046457;28;20073;-58
2021/06/26 11:12:08;;;;;;;13.68;6.35;;;;;;;;;;5057369;28;20048;-58
2021/06/26 11:14:35;;;;;;;12.52;7.07;;;;;;;;;;5061678;28;20044;-58
2021/06/26 11:17:03;;;;;;;12.55;6.65;;;;;;;;;;5045024;28;20063;-58
2021/06/26 11:19:30;;;;;;;13.77;6.53;;;;;;;;;;5041355;28;20040;-58
2021/06/26 11:22:00;;;;;;;11.57;6.35;;;;;;;;;;5037838;28;20044;-58
2021/06/26 11:24:33;;;;;;;13.82;6.10;;;;;;;;;;5034995;28;20041;-58
2021/06/26 11:27:00;;;;;;;16.00;7.40;;;;;;;;;;5058543;28;20040;-58
2021/06/26 11:29:31;;;;;;;13.93;7.30;;;;;;;;;;5060467;28;20145;-59
2021/06/26 11:31:58;;;;;;;19.77;7.05;;;;;;;;;;5057352;28;20125;-58
2021/06/26 11:34:26;;;;;;;13.82;6.53;;;;;;;;;;5050957;28;20033;-58
2021/06/26 11:36:53;;;;;;;;;;;;;;;;;;5038467;28;20130;-56
2021/06/26 11:39:20;;;;;;;13.32;6.60;;;;;;;;;;5039231;28;19939;-57
2021/06/26 11:41:47;;;;;;;16.17;8.27;;;;;;;;;;5038283;28;20071;-57
2021/06/26 11:44:14;;;;;;;11.13;6.43;;;;;;;;;;5062895;28;20044;-57
2021/06/26 11:46:40;;;;;;;15.60;6.65;;;;;;;;;;5059527;28;20044;-58
2021/06/26 11:49:07;;;;;;;14.48;8.07;;;;;;;;;;5055792;28;20037;-56
2021/06/26 11:51:35;;;;;;;14.13;7.47;;;;;;;;;;5061134;28;20118;-57
2021/06/26 11:54:02;;;;;;;14.90;7.88;;;;;;;;;;5056373;28;20040;-57
2021/06/26 11:56:29;;;;;;;12.40;7.35;;;;;;;;;;5063463;28;20047;-56
2021/06/26 11:58:59;;;;;;;14.90;8.18;;;;;;;;;;5042769;28;20048;-57
2021/06/26 12:01:27;;;;;;;16.08;8.95;;;;;;;;;;5042093;28;20033;-57
2021/06/26 12:03:55;;;;;;;15.23;7.95;;;;;;;;;;5036955;28;20045;-56
2021/06/26 12:06:21;;;;;;;14.52;8.38;;;;;;;;;;5039750;28;20049;-57
2021/06/26 12:08:52;;;;;;;15.38;8.90;;;;;;;;;;5047711;28;20037;-57
2021/06/26 12:11:19;;;;;;;16.05;8.23;;;;;;;;;;5058757;28;20041;-58
2021/06/26 12:13:47;;;;;;;18.50;8.70;;;;;;;;;;5056128;28;20045;-56
2021/06/26 12:16:14;;;;;;;15.15;7.63;;;;;;;;;;5059821;28;20154;-57
2021/06/26 12:18:49;;;;;;;14.05;7.53;;;;;;;;;;5052778;28;20033;-57
2021/06/26 12:21:15;;;;;;;18.40;8.90;;;;;;;;;;5039982;28;20049;-57
2021/06/26 12:23:45;;;;;;;15.63;8.13;;;;;;;;;;5042734;28;20094;-57
2021/06/26 12:26:17;;;;;;;14.57;8.30;;;;;;;;;;5048956;28;20065;-58
2021/06/26 12:28:43;;;;;;;16.90;8.90;;;;;;;;;;5058371;28;20495;-58
2021/06/26 12:31:10;;;;;;;19.35;8.80;;;;;;;;;;5083160;28;20117;-57
2021/06/26 12:33:38;;;;;;;19.40;8.25;;;;;;;;;;5080895;28;20053;-58
2021/06/26 12:36:15;;;;;;;19.45;7.55;;;;;;;;;;5062020;28;20032;-57
2021/06/26 12:38:42;;;;;;;27.38;8.32;;;;;;;;;;5057879;28;20074;-58
2021/06/26 12:41:20;;;;;;;20.77;7.75;;;;;;;;;;5054781;28;20048;-60
2021/06/26 12:43:47;;;;;;;47.20;8.88;;;;;;;;;;5060219;28;20036;-57
2021/06/26 12:46:14;;;;;;;19.17;8.38;;;;;;;;;;5046166;28;20021;-58
2021/06/26 12:48:43;;;;;;;24.92;8.77;;;;;;;;;;5060942;28;20044;-58
2021/06/26 12:51:12;;;;;;;17.85;8.95;;;;;;;;;;5039532;28;20040;-58
2021/06/26 12:53:40;;;;;;;16.35;8.77;;;;;;;;;;5045535;28;20049;-58
2021/06/26 12:56:11;;;;;;;15.52;7.90;;;;;;;;;;5071032;28;20056;-58
2021/06/26 12:58:39;;;;;;;18.67;8.82;;;;;;;;;;5081369;28;20044;-58
2021/06/26 13:01:06;;;;;;;16.40;8.27;;;;;;;;;;5060554;28;20124;-58
2021/06/26 13:03:33;;;;;;;17.00;8.77;;;;;;;;;;5055412;28;20121;-57
2021/06/26 13:06:12;;;;;;;15.88;8.00;;;;;;;;;;5058590;28;20088;-57
2021/06/26 13:11:32;;;;;;;14.43;8.55;;;;;;;;;;5055199;28;20040;-57
2021/06/26 13:14:06;;;;;;;12.95;7.18;;;;;;;;;;5062738;28;20043;-57
2021/06/26 13:16:33;;;;;;;14.38;8.27;;;;;;;;;;5057946;28;20059;-57
2021/06/26 13:18:59;;;;;;;18.15;8.40;;;;;;;;;;5064901;28;20051;-58
2021/06/26 13:21:26;;;;;;;16.25;7.90;;;;;;;;;;5057906;28;20040;-57
2021/06/26 13:23:55;;;;;;;16.60;7.75;;;;;;;;;;5063936;28;20057;-58
2021/06/26 13:26:22;;;;;;;13.10;6.47;;;;;;;;;;5033700;28;20037;-57
2021/06/26 13:28:48;;;;;;;15.88;7.43;;;;;;;;;;5079929;28;20040;-57
2021/06/26 13:31:17;;;;;;;16.80;7.57;;;;;;;;;;5058913;28;20051;-58
2021/06/26 13:33:44;;;;;;;12.80;5.95;;;;;;;;;;5064166;28;20063;-57
2021/06/26 13:36:13;;;;;;;15.27;6.90;;;;;;;;;;5076935;28;20060;-57
2021/06/26 13:38:39;;;;;;;14.48;6.60;;;;;;;;;;5062805;28;20054;-58
2021/06/26 13:41:06;;;;;;;13.77;7.30;;;;;;;;;;5080336;28;20394;-57
2021/06/26 13:43:33;;;;;;;16.20;6.43;;;;;;;;;;5060579;28;20056;-58
2021/06/26 13:46:00;;;;;;;10.13;6.23;;;;;;;;;;5079867;28;20032;-58
2021/06/26 13:48:30;;;;;;;11.77;6.07;;;;;;;;;;5080322;28;20044;-58
2021/06/26 13:51:00;;;;;;;13.73;5.97;;;;;;;;;;5064417;28;20045;-57
2021/06/26 13:53:27;;;;;;;11.40;5.60;;;;;;;;;;5058660;28;20048;-58
2021/06/26 13:55:53;;;;;;;8.77;5.32;;;;;;;;;;5064835;28;20036;-58
2021/06/26 13:58:20;;;;;;;9.82;5.82;;;;;;;;;;5060292;28;20036;-58
2021/06/26 14:00:47;;;;;;;13.32;5.13;;;;;;;;;;5059038;28;20040;-59
2021/06/26 14:03:14;;;;;;;10.85;4.97;;;;;;;;;;5056718;28;20068;-58
2021/06/26 14:05:42;;;;;;;8.63;4.72;;;;;;;;;;5063351;28;20113;-58
2021/06/26 14:08:09;;;;;;;9.00;5.45;;;;;;;;;;5076343;28;20028;-58
2021/06/26 14:10:36;;;;;;;13.15;5.45;;;;;;;;;;5064701;28;20048;-58
2021/06/26 14:13:10;;;;;;;12.43;5.53;;;;;;;;;;5062732;28;20040;-58
2021/06/26 14:15:36;;;;;;;9.25;5.07;;;;;;;;;;5062999;28;20080;-58
2021/06/26 14:18:03;;;;;;;11.43;5.40;;;;;;;;;;5059182;28;20250;-58
2021/06/26 14:20:29;;;;;;;11.88;5.32;;;;;;;;;;5064330;28;20099;-58
2021/06/26 14:22:58;;;;;;;10.65;5.07;;;;;;;;;;5046655;28;20060;-58
2021/06/26 14:25:28;;;;;;;10.95;5.43;;;;;;;;;;5051485;28;20172;-57
2021/06/26 14:27:55;;;;;;;12.88;6.35;;;;;;;;;;5059697;28;20349;-58